createdAt,value
2023-02-16T00:01:59.107Z,2.70
2023-02-16T00:04:27.006Z,2.70
2023-02-16T00:06:54.226Z,2.70
2023-02-16T00:09:21.678Z,2.70
2023-02-16T00:12:07.623Z,2.60
2023-02-16T00:14:35.660Z,2.60
2023-02-16T00:17:02.873Z,2.60
2023-02-16T00:19:37.169Z,2.50
2023-02-16T00:22:04.524Z,2.50
2023-02-16T00:24:31.779Z,2.40
2023-02-16T00:26:59.445Z,2.40
2023-02-16T00:29:26.081Z,2.40
2023-02-16T00:31:53.443Z,2.40
2023-02-16T00:34:28.208Z,2.40
2023-02-16T00:36:55.500Z,2.40
2023-02-16T00:39:22.527Z,2.40
2023-02-16T00:41:52.294Z,2.30
2023-02-16T00:44:39.200Z,2.20
2023-02-16T00:47:11.933Z,2.20
2023-02-16T00:49:38.611Z,2.10
2023-02-16T00:52:23.725Z,2.10
2023-02-16T00:54:50.424Z,2.00
2023-02-16T00:57:18.562Z,2.00
2023-02-16T00:59:46.207Z,2.00
2023-02-16T01:02:12.935Z,2.10
2023-02-16T01:04:39.915Z,2.00
2023-02-16T01:07:29.928Z,2.10
2023-02-16T01:10:14.951Z,2.20
2023-02-16T01:12:41.739Z,2.20
2023-02-16T01:15:15.881Z,2.30
2023-02-16T01:17:42.534Z,2.40
2023-02-16T01:20:17.596Z,2.40
2023-02-16T01:22:46.151Z,2.30
2023-02-16T01:25:13.150Z,2.30
2023-02-16T01:27:40.282Z,2.20
2023-02-16T01:30:08.224Z,2.20
2023-02-16T01:32:34.936Z,2.20
2023-02-16T01:35:01.630Z,2.20
2023-02-16T01:37:28.479Z,2.10
2023-02-16T01:39:55.138Z,2.10
2023-02-16T01:42:44.919Z,2.00
2023-02-16T01:45:15.801Z,2.00
2023-02-16T01:47:47.759Z,1.90
2023-02-16T01:50:14.500Z,1.90
2023-02-16T01:52:51.642Z,1.90
2023-02-16T01:55:27.364Z,1.90
2023-02-16T01:58:02.798Z,1.80
2023-02-16T02:00:49.619Z,1.80
2023-02-16T02:03:46.013Z,1.80
2023-02-16T02:06:14.283Z,1.80
2023-02-16T02:08:59.324Z,1.80
2023-02-16T02:11:35.274Z,1.70
2023-02-16T02:14:05.733Z,1.70
2023-02-16T02:16:32.575Z,1.60
2023-02-16T02:18:59.285Z,1.50
2023-02-16T02:22:03.559Z,1.50
2023-02-16T02:24:53.094Z,1.40
2023-02-16T02:27:24.256Z,1.40
2023-02-16T02:30:09.924Z,1.40
2023-02-16T02:32:45.819Z,1.40
2023-02-16T02:35:31.462Z,1.50
2023-02-16T02:38:04.115Z,1.40
2023-02-16T02:40:33.866Z,1.40
2023-02-16T02:43:12.539Z,1.40
2023-02-16T02:45:47.724Z,1.40
2023-02-16T02:48:14.438Z,1.40
2023-02-16T02:51:14.587Z,1.40
2023-02-16T02:53:43.374Z,1.30
2023-02-16T02:56:29.235Z,1.30
2023-02-16T02:59:18.932Z,1.20
2023-02-16T03:01:48.918Z,1.10
2023-02-16T03:04:19.708Z,1.20
2023-02-16T03:06:47.830Z,1.20
2023-02-16T03:09:15.449Z,1.30
2023-02-16T03:12:01.624Z,1.20
2023-02-16T03:14:40.293Z,1.20
2023-02-16T03:17:29.973Z,1.30
2023-02-16T03:20:16.523Z,1.20
2023-02-16T03:23:01.639Z,1.20
2023-02-16T03:25:49.010Z,1.10
2023-02-16T03:28:36.553Z,1.10
2023-02-16T03:31:04.747Z,1.10
2023-02-16T03:33:32.092Z,1.00
2023-02-16T03:35:59.502Z,1.10
2023-02-16T03:38:26.349Z,1.00
2023-02-16T03:40:53.385Z,1.00
2023-02-16T03:43:24.364Z,0.90
2023-02-16T03:45:51.198Z,0.90
2023-02-16T03:48:17.938Z,0.90
2023-02-16T03:50:44.624Z,0.90
2023-02-16T03:53:11.353Z,0.90
2023-02-16T03:55:39.582Z,0.90
2023-02-16T03:58:06.932Z,1.00
2023-02-16T04:00:34.218Z,1.00
2023-02-16T04:03:00.940Z,1.00
2023-02-16T04:05:27.969Z,0.90
2023-02-16T04:07:54.748Z,0.90
2023-02-16T04:10:21.759Z,0.80
2023-02-16T04:12:48.438Z,0.80
2023-02-16T04:15:16.902Z,0.70
2023-02-16T04:17:43.626Z,0.80
2023-02-16T04:20:11.935Z,0.80
2023-02-16T04:22:38.905Z,0.80
2023-02-16T04:25:06.112Z,0.80
2023-02-16T04:27:32.912Z,0.80
2023-02-16T04:29:59.679Z,0.70
2023-02-16T04:32:26.957Z,0.70
2023-02-16T04:34:53.674Z,0.70
2023-02-16T04:37:20.980Z,0.70
2023-02-16T04:39:47.652Z,0.70
2023-02-16T04:42:14.377Z,0.70
2023-02-16T04:44:41.064Z,0.70
2023-02-16T04:47:07.719Z,0.70
2023-02-16T04:49:34.390Z,0.70
2023-02-16T04:52:01.341Z,0.70
2023-02-16T04:54:28.049Z,0.60
2023-02-16T04:56:54.784Z,0.60
2023-02-16T04:59:21.606Z,0.60
2023-02-16T05:01:49.160Z,0.60
2023-02-16T05:04:16.554Z,0.60
2023-02-16T05:06:43.258Z,0.60
2023-02-16T05:09:09.990Z,0.70
2023-02-16T05:11:55.272Z,0.70
2023-02-16T05:14:42.049Z,0.70
2023-02-16T05:17:10.272Z,0.70
2023-02-16T05:19:36.965Z,0.70
2023-02-16T05:22:04.104Z,0.70
2023-02-16T05:24:31.189Z,0.70
2023-02-16T05:26:57.915Z,0.70
2023-02-16T05:29:24.667Z,0.70
2023-02-16T05:31:51.523Z,0.70
2023-02-16T05:34:18.504Z,0.60
2023-02-16T05:36:45.365Z,0.60
2023-02-16T05:39:12.019Z,0.70
2023-02-16T05:41:38.716Z,0.70
2023-02-16T05:44:05.584Z,0.70
2023-02-16T05:46:34.077Z,0.70
2023-02-16T05:49:01.185Z,0.70
2023-02-16T05:51:28.004Z,0.70
2023-02-16T05:53:54.816Z,0.60
2023-02-16T05:56:21.943Z,0.60
2023-02-16T05:58:49.139Z,0.70
2023-02-16T06:01:16.042Z,0.70
2023-02-16T06:03:43.175Z,0.70
2023-02-16T06:06:10.096Z,0.80
2023-02-16T06:08:37.012Z,0.80
2023-02-16T06:11:07.059Z,0.80
2023-02-16T06:13:34.357Z,0.80
2023-02-16T06:16:01.342Z,0.80
2023-02-16T06:18:28.077Z,0.70
2023-02-16T06:20:56.694Z,0.80
2023-02-16T06:23:23.495Z,0.80
2023-02-16T06:25:51.758Z,0.80
2023-02-16T06:28:18.490Z,0.80
2023-02-16T06:30:45.298Z,0.80
2023-02-16T06:33:11.964Z,0.80
2023-02-16T06:35:38.703Z,0.80
2023-02-16T06:38:05.389Z,0.80
2023-02-16T06:40:32.084Z,0.90
2023-02-16T06:42:58.797Z,0.90
2023-02-16T06:45:25.523Z,0.80
2023-02-16T06:47:52.162Z,0.90
2023-02-16T06:50:19.167Z,0.80
2023-02-16T06:52:45.863Z,0.90
2023-02-16T06:55:12.947Z,0.90
2023-02-16T06:57:39.608Z,0.90
2023-02-16T07:00:07.670Z,1.00
2023-02-16T07:02:35.702Z,0.90
2023-02-16T07:05:03.320Z,1.00
2023-02-16T07:07:30.954Z,1.00
2023-02-16T07:09:58.030Z,1.10
2023-02-16T07:12:24.752Z,1.20
2023-02-16T07:14:51.413Z,1.20
2023-02-16T07:17:18.189Z,1.30
2023-02-16T07:19:44.832Z,1.30
2023-02-16T07:22:11.897Z,1.40
2023-02-16T07:24:38.558Z,1.50
2023-02-16T07:27:05.659Z,1.50
2023-02-16T07:29:32.360Z,1.60
2023-02-16T07:31:59.253Z,1.60
2023-02-16T07:34:26.086Z,1.70
2023-02-16T07:36:52.843Z,1.70
2023-02-16T07:39:19.706Z,1.80
2023-02-16T07:41:46.448Z,1.90
2023-02-16T07:44:13.148Z,2.00
2023-02-16T07:46:39.886Z,2.00
2023-02-16T07:49:06.560Z,2.10
2023-02-16T07:51:33.306Z,2.20
2023-02-16T07:54:00.121Z,2.20
2023-02-16T07:56:28.180Z,2.30
2023-02-16T07:58:58.954Z,2.40
2023-02-16T08:01:25.966Z,2.50
2023-02-16T08:03:52.743Z,2.50
2023-02-16T08:06:20.169Z,2.60
2023-02-16T08:08:46.921Z,2.70
2023-02-16T08:11:18.093Z,2.70
2023-02-16T08:13:44.899Z,2.80
2023-02-16T08:16:12.825Z,2.90
2023-02-16T08:18:40.709Z,3.00
2023-02-16T08:21:13.889Z,3.00
2023-02-16T08:23:41.913Z,3.10
2023-02-16T08:26:09.947Z,3.20
2023-02-16T08:28:38.462Z,3.30
2023-02-16T08:31:06.023Z,3.40
2023-02-16T08:33:34.306Z,3.40
2023-02-16T08:36:01.064Z,3.50
2023-02-16T08:38:27.746Z,3.60
2023-02-16T08:40:55.529Z,3.80
2023-02-16T08:43:22.240Z,4.00
2023-02-16T08:45:49.168Z,4.20
2023-02-16T08:48:16.897Z,4.40
2023-02-16T08:50:47.198Z,4.60
2023-02-16T08:53:15.404Z,4.80
2023-02-16T08:55:42.124Z,5.00
2023-02-16T08:58:08.851Z,5.20
2023-02-16T09:00:35.581Z,5.30
2023-02-16T09:03:02.302Z,5.50
2023-02-16T09:05:28.979Z,5.60
2023-02-16T09:07:56.070Z,5.70
2023-02-16T09:10:23.637Z,5.80
2023-02-16T09:12:50.308Z,5.90
2023-02-16T09:15:17.070Z,6.00
2023-02-16T09:17:43.756Z,6.00
2023-02-16T09:20:10.691Z,6.10
2023-02-16T09:22:38.005Z,6.10
2023-02-16T09:25:05.244Z,6.20
2023-02-16T09:27:32.749Z,6.20
2023-02-16T09:29:59.510Z,6.30
2023-02-16T09:32:30.122Z,6.30
2023-02-16T09:34:56.764Z,6.40
2023-02-16T09:37:23.922Z,6.40
2023-02-16T09:39:50.609Z,6.50
2023-02-16T09:42:24.399Z,6.60
2023-02-16T09:45:01.426Z,6.60
2023-02-16T09:47:33.766Z,6.60
2023-02-16T09:50:03.898Z,6.70
2023-02-16T09:52:37.606Z,6.70
2023-02-16T09:55:08.632Z,6.80
2023-02-16T09:57:58.598Z,6.90
2023-02-16T10:00:34.507Z,6.90
2023-02-16T10:03:08.076Z,7.00
2023-02-16T10:05:47.075Z,7.00
2023-02-16T10:08:22.855Z,7.10
2023-02-16T10:11:28.263Z,7.20
2023-02-16T10:13:57.510Z,7.20
2023-02-16T10:16:28.464Z,7.30
2023-02-16T10:18:59.608Z,7.40
2023-02-16T10:21:28.232Z,7.40
2023-02-16T10:23:58.232Z,7.50
2023-02-16T10:26:46.349Z,7.60
2023-02-16T10:29:15.818Z,7.70
2023-02-16T10:31:43.559Z,7.80
2023-02-16T10:34:23.185Z,7.80
2023-02-16T10:36:56.047Z,7.80
2023-02-16T10:39:26.288Z,7.80
2023-02-16T10:42:01.787Z,7.90
2023-02-16T10:44:36.203Z,7.90
2023-02-16T10:47:04.838Z,7.90
2023-02-16T10:49:32.767Z,7.90
2023-02-16T10:52:01.263Z,7.90
2023-02-16T10:54:29.264Z,8.10
2023-02-16T10:56:57.536Z,8.10
2023-02-16T10:59:26.390Z,8.20
2023-02-16T11:01:54.455Z,8.20
2023-02-16T11:04:33.661Z,8.20
2023-02-16T11:07:05.479Z,8.30
2023-02-16T11:09:33.115Z,8.40
2023-02-16T11:11:59.988Z,8.50
2023-02-16T11:14:30.455Z,8.70
2023-02-16T11:17:14.726Z,8.70
2023-02-16T11:19:47.652Z,8.80
2023-02-16T11:22:31.953Z,8.80
2023-02-16T11:25:17.601Z,8.90
2023-02-16T11:27:55.058Z,8.90
2023-02-16T11:30:29.401Z,8.90
2023-02-16T11:32:56.690Z,8.90
2023-02-16T11:35:23.460Z,9.00
2023-02-16T11:37:50.400Z,8.90
2023-02-16T11:40:23.067Z,9.00
2023-02-16T11:42:52.382Z,9.00
2023-02-16T11:45:24.158Z,9.20
2023-02-16T11:47:56.312Z,9.30
2023-02-16T11:50:28.972Z,9.50
2023-02-16T11:52:57.444Z,9.60
2023-02-16T11:55:32.737Z,9.60
2023-02-16T11:58:18.414Z,9.70
2023-02-16T12:01:06.168Z,9.60
2023-02-16T12:03:33.461Z,9.60
2023-02-16T12:06:01.123Z,9.60
2023-02-16T12:08:46.623Z,9.70
2023-02-16T12:11:13.361Z,9.60
2023-02-16T12:13:58.280Z,9.60
2023-02-16T12:16:24.988Z,9.50
2023-02-16T12:19:11.476Z,9.50
2023-02-16T12:21:45.438Z,9.40
2023-02-16T12:24:32.036Z,9.40
2023-02-16T12:27:01.426Z,9.40
2023-02-16T12:29:44.874Z,9.50
2023-02-16T12:32:24.442Z,9.50
2023-02-16T12:35:20.380Z,9.60
2023-02-16T12:37:52.899Z,9.60
2023-02-16T12:40:33.287Z,9.70
2023-02-16T12:42:59.982Z,9.70
2023-02-16T12:45:30.440Z,9.80
2023-02-16T12:48:15.631Z,9.80
2023-02-16T12:50:44.163Z,9.90
2023-02-16T12:53:27.718Z,10.00
2023-02-16T12:56:07.692Z,9.90
2023-02-16T12:58:43.382Z,9.90
2023-02-16T13:01:16.026Z,9.90
2023-02-16T13:03:50.558Z,9.90
2023-02-16T13:06:27.730Z,10.00
2023-02-16T13:09:10.212Z,10.00
2023-02-16T13:11:55.785Z,10.10
2023-02-16T13:14:28.450Z,10.10
2023-02-16T13:17:08.985Z,10.10
2023-02-16T13:19:35.940Z,10.10
2023-02-16T13:22:05.597Z,10.20
2023-02-16T13:24:39.404Z,10.20
2023-02-16T13:27:18.241Z,10.10
2023-02-16T13:29:52.729Z,10.10
2023-02-16T13:32:22.839Z,10.10
2023-02-16T13:34:58.884Z,10.00
2023-02-16T13:37:31.914Z,10.00
2023-02-16T13:40:04.880Z,9.90
2023-02-16T13:42:47.043Z,9.90
2023-02-16T13:45:21.293Z,9.90
2023-02-16T13:47:48.745Z,9.90
2023-02-16T13:50:22.399Z,9.80
2023-02-16T13:52:52.939Z,9.90
2023-02-16T13:55:25.910Z,9.90
2023-02-16T13:58:02.289Z,10.00
2023-02-16T14:00:32.343Z,10.00
2023-02-16T14:03:00.946Z,10.10
2023-02-16T14:05:35.549Z,10.00
2023-02-16T14:08:13.643Z,10.00
2023-02-16T14:10:55.463Z,10.00
2023-02-16T14:13:24.559Z,9.90
2023-02-16T14:15:52.530Z,9.90
2023-02-16T14:18:28.454Z,9.80
2023-02-16T14:21:03.006Z,9.70
2023-02-16T14:23:34.820Z,9.70
2023-02-16T14:26:03.302Z,9.80
2023-02-16T14:28:30.132Z,9.80
2023-02-16T14:31:02.167Z,9.90
2023-02-16T14:33:31.004Z,9.90
2023-02-16T14:35:59.736Z,9.80
2023-02-16T14:38:47.340Z,9.80
2023-02-16T14:41:23.422Z,9.70
2023-02-16T14:44:10.393Z,9.70
2023-02-16T14:46:46.206Z,9.60
2023-02-16T14:49:13.247Z,9.60
2023-02-16T14:51:58.702Z,9.50
2023-02-16T14:54:37.278Z,9.50
2023-02-16T14:57:12.098Z,9.60
2023-02-16T14:59:46.238Z,9.50
2023-02-16T15:02:25.078Z,9.50
2023-02-16T15:04:52.849Z,9.50
2023-02-16T15:07:20.783Z,9.50
2023-02-16T15:09:49.770Z,9.40
2023-02-16T15:12:22.488Z,9.30
2023-02-16T15:14:54.325Z,9.30
2023-02-16T15:17:34.417Z,9.20
2023-02-16T15:20:08.411Z,9.10
2023-02-16T15:22:38.816Z,9.00
2023-02-16T15:25:16.923Z,8.90
2023-02-16T15:27:52.460Z,8.90
2023-02-16T15:30:21.528Z,8.80
2023-02-16T15:32:52.608Z,8.70
2023-02-16T15:35:24.588Z,8.70
2023-02-16T15:37:59.282Z,8.60
2023-02-16T15:40:27.157Z,8.60
2023-02-16T15:42:54.460Z,8.60
2023-02-16T15:45:26.841Z,8.60
2023-02-16T15:47:53.703Z,8.60
2023-02-16T15:50:27.190Z,8.60
2023-02-16T15:52:54.169Z,8.60
2023-02-16T15:55:20.864Z,8.60
2023-02-16T15:57:47.611Z,8.60
2023-02-16T16:00:21.493Z,8.60
2023-02-16T16:02:49.232Z,8.50
2023-02-16T16:05:22.094Z,8.50
2023-02-16T16:07:49.478Z,8.40
2023-02-16T16:10:19.974Z,8.40
2023-02-16T16:12:47.995Z,8.40
2023-02-16T16:15:17.523Z,8.30
2023-02-16T16:17:44.276Z,8.30
2023-02-16T16:20:31.304Z,8.30
2023-02-16T16:23:05.498Z,8.30
2023-02-16T16:25:35.333Z,8.20
2023-02-16T16:28:02.902Z,8.20
2023-02-16T16:30:31.721Z,8.20
2023-02-16T16:33:06.452Z,8.20
2023-02-16T16:35:34.325Z,8.10
2023-02-16T16:38:01.054Z,8.10
2023-02-16T16:40:30.682Z,8.10
2023-02-16T16:43:03.224Z,8.10
2023-02-16T16:45:34.851Z,8.10
2023-02-16T16:48:07.537Z,8.10
2023-02-16T16:50:37.722Z,8.10
2023-02-16T16:53:24.752Z,8.00
2023-02-16T16:55:51.419Z,8.00
2023-02-16T16:58:18.112Z,8.10
2023-02-16T17:00:44.776Z,8.10
2023-02-16T17:03:16.124Z,8.10
2023-02-16T17:05:43.968Z,8.10
2023-02-16T17:08:11.128Z,8.10
2023-02-16T17:10:39.193Z,8.10
2023-02-16T17:13:06.619Z,8.10
2023-02-16T17:15:44.221Z,8.20
2023-02-16T17:18:15.033Z,8.20
2023-02-16T17:20:42.068Z,8.20
2023-02-16T17:23:11.140Z,8.20
2023-02-16T17:25:37.811Z,8.20
2023-02-16T17:28:04.909Z,8.10
2023-02-16T17:30:32.462Z,8.10
2023-02-16T17:32:59.275Z,8.10
2023-02-16T17:35:26.587Z,8.10
2023-02-16T17:37:53.340Z,8.10
2023-02-16T17:40:21.930Z,8.00
2023-02-16T17:42:48.792Z,8.00
2023-02-16T17:45:17.346Z,8.00
2023-02-16T17:47:47.362Z,7.90
2023-02-16T17:50:15.235Z,7.90
2023-02-16T17:52:42.724Z,7.80
2023-02-16T17:55:09.851Z,7.70
2023-02-16T17:57:37.153Z,7.70
2023-02-16T18:00:05.559Z,7.60
2023-02-16T18:02:32.265Z,7.50
2023-02-16T18:04:59.120Z,7.50
2023-02-16T18:07:25.930Z,7.50
2023-02-16T18:09:52.728Z,7.50
2023-02-16T18:12:19.439Z,7.40
2023-02-16T18:14:46.181Z,7.40
2023-02-16T18:17:13.114Z,7.40
2023-02-16T18:19:39.836Z,7.30
2023-02-16T18:22:06.551Z,7.20
2023-02-16T18:24:33.450Z,7.20
2023-02-16T18:27:00.191Z,7.20
2023-02-16T18:29:27.018Z,7.00
2023-02-16T18:31:53.746Z,7.00
2023-02-16T18:34:20.445Z,7.00
2023-02-16T18:36:47.261Z,7.10
2023-02-16T18:39:14.030Z,7.10
2023-02-16T18:41:40.708Z,7.10
2023-02-16T18:44:07.466Z,7.20
2023-02-16T18:46:34.217Z,7.20
2023-02-16T18:49:00.926Z,7.30
2023-02-16T18:51:29.453Z,7.40
2023-02-16T18:53:56.751Z,7.40
2023-02-16T18:56:23.573Z,7.40
2023-02-16T18:58:50.230Z,7.40
2023-02-16T19:01:24.746Z,7.40
2023-02-16T19:03:51.455Z,7.40
2023-02-16T19:06:18.069Z,7.50
2023-02-16T19:08:45.546Z,7.50
2023-02-16T19:11:12.308Z,7.40
2023-02-16T19:13:38.998Z,7.40
2023-02-16T19:16:06.150Z,7.50
2023-02-16T19:18:33.164Z,7.40
2023-02-16T19:21:03.224Z,7.40
2023-02-16T19:23:30.086Z,7.40
2023-02-16T19:25:56.725Z,7.30
2023-02-16T19:28:23.409Z,7.30
2023-02-16T19:30:50.292Z,7.30
2023-02-16T19:33:17.097Z,7.30
2023-02-16T19:35:43.808Z,7.30
2023-02-16T19:38:10.707Z,7.30
2023-02-16T19:40:38.668Z,7.30
2023-02-16T19:43:05.366Z,7.30
2023-02-16T19:45:32.219Z,7.30
2023-02-16T19:47:58.881Z,7.30
2023-02-16T19:50:25.583Z,7.30
2023-02-16T19:52:52.252Z,7.30
2023-02-16T19:55:18.925Z,7.30
2023-02-16T19:57:45.590Z,7.30
2023-02-16T20:00:14.138Z,7.30
2023-02-16T20:02:40.871Z,7.30
2023-02-16T20:05:09.691Z,7.20
2023-02-16T20:07:36.603Z,7.30
2023-02-16T20:10:03.548Z,7.30
2023-02-16T20:12:30.283Z,7.20
2023-02-16T20:14:58.205Z,7.30
2023-02-16T20:17:25.847Z,7.30
2023-02-16T20:19:52.517Z,7.30
2023-02-16T20:22:19.265Z,7.20
2023-02-16T20:24:46.071Z,7.20
2023-02-16T20:27:12.769Z,7.20
2023-02-16T20:29:39.408Z,7.20
2023-02-16T20:32:06.240Z,7.20
2023-02-16T20:34:33.508Z,7.20
2023-02-16T20:37:00.512Z,7.20
2023-02-16T20:39:27.724Z,7.20
2023-02-16T20:41:54.491Z,7.20
2023-02-16T20:44:22.589Z,7.20
2023-02-16T20:46:49.561Z,7.20
2023-02-16T20:49:16.529Z,7.20
2023-02-16T20:51:43.441Z,7.20
2023-02-16T20:54:11.432Z,7.20
2023-02-16T20:56:38.163Z,7.20
2023-02-16T20:59:05.362Z,7.10
2023-02-16T21:01:39.528Z,7.10
2023-02-16T21:04:07.052Z,7.20
2023-02-16T21:06:34.230Z,7.10
2023-02-16T21:09:01.167Z,7.10
2023-02-16T21:11:27.938Z,7.10
2023-02-16T21:13:54.728Z,7.00
2023-02-16T21:16:21.802Z,7.10
2023-02-16T21:18:48.735Z,7.10
2023-02-16T21:21:15.861Z,7.10
2023-02-16T21:23:43.875Z,7.00
2023-02-16T21:26:11.078Z,7.10
2023-02-16T21:28:37.745Z,7.00
2023-02-16T21:31:05.602Z,7.10
2023-02-16T21:33:32.487Z,7.10
2023-02-16T21:36:15.897Z,7.10
2023-02-16T21:38:43.168Z,7.10
2023-02-16T21:41:26.613Z,7.10
2023-02-16T21:43:55.005Z,7.10
2023-02-16T21:46:21.759Z,7.10
2023-02-16T21:48:49.769Z,7.10
2023-02-16T21:51:20.710Z,7.20
2023-02-16T21:53:47.862Z,7.10
2023-02-16T21:56:33.199Z,7.10
2023-02-16T21:59:00.380Z,7.10
2023-02-16T22:01:29.615Z,7.10
2023-02-16T22:03:58.664Z,7.10
2023-02-16T22:06:27.307Z,7.10
2023-02-16T22:08:54.051Z,7.10
2023-02-16T22:11:21.391Z,7.10
2023-02-16T22:13:52.191Z,7.10
2023-02-16T22:16:20.339Z,7.10
2023-02-16T22:18:47.751Z,7.10
2023-02-16T22:21:14.452Z,7.10
2023-02-16T22:23:41.258Z,7.10
2023-02-16T22:26:08.437Z,7.10
2023-02-16T22:28:36.676Z,7.10
2023-02-16T22:31:07.791Z,7.10
2023-02-16T22:33:34.746Z,7.10
2023-02-16T22:36:05.934Z,7.10
2023-02-16T22:38:33.000Z,7.10
2023-02-16T22:41:03.493Z,7.10
2023-02-16T22:43:30.165Z,7.10
2023-02-16T22:45:56.899Z,7.10
2023-02-16T22:48:23.799Z,7.10
2023-02-16T22:50:57.280Z,7.10
2023-02-16T22:53:25.558Z,7.10
2023-02-16T22:55:53.979Z,7.10
2023-02-16T22:58:21.212Z,7.20
2023-02-16T23:00:48.443Z,7.10
2023-02-16T23:03:15.297Z,7.10
2023-02-16T23:05:42.300Z,7.10
2023-02-16T23:08:09.654Z,7.20
2023-02-16T23:10:37.851Z,7.20
2023-02-16T23:13:07.235Z,7.20
2023-02-16T23:15:37.347Z,7.20
2023-02-16T23:18:04.123Z,7.20
2023-02-16T23:20:31.066Z,7.20
2023-02-16T23:22:57.721Z,7.20
2023-02-16T23:25:33.336Z,7.20
2023-02-16T23:28:00.855Z,7.10
2023-02-16T23:30:28.197Z,7.20
2023-02-16T23:32:55.106Z,7.20
2023-02-16T23:35:22.122Z,7.20
2023-02-16T23:37:48.820Z,7.20
2023-02-16T23:40:15.527Z,7.20
2023-02-16T23:42:42.175Z,7.20
2023-02-16T23:45:09.158Z,7.20
2023-02-16T23:47:35.845Z,7.20
2023-02-16T23:50:02.508Z,7.30
2023-02-16T23:52:29.185Z,7.30
2023-02-16T23:54:55.836Z,7.30
2023-02-16T23:57:22.519Z,7.30
2023-02-16T23:59:49.195Z,7.30
